createdAt,value
2023-02-23T00:00:47.388Z,14.82
2023-02-23T00:03:14.608Z,15.23
2023-02-23T00:05:41.180Z,15.93
2023-02-23T00:08:07.900Z,15.10
2023-02-23T00:10:34.398Z,14.65
2023-02-23T00:13:00.726Z,15.05
2023-02-23T00:15:27.316Z,15.35
2023-02-23T00:17:53.617Z,15.55
2023-02-23T00:20:19.980Z,15.43
2023-02-23T00:22:46.810Z,16.05
2023-02-23T00:25:13.912Z,15.00
2023-02-23T00:27:40.446Z,16.02
2023-02-23T00:30:06.800Z,16.02
2023-02-23T00:32:33.590Z,16.23
2023-02-23T00:35:00.449Z,14.85
2023-02-23T00:37:27.506Z,15.57
2023-02-23T00:39:53.941Z,17.17
2023-02-23T00:42:20.705Z,15.82
2023-02-23T00:44:47.068Z,15.27
2023-02-23T00:47:13.621Z,15.80
2023-02-23T00:49:39.922Z,16.48
2023-02-23T00:52:06.324Z,15.57
2023-02-23T00:54:32.918Z,16.27
2023-02-23T00:56:59.699Z,16.33
2023-02-23T00:59:26.335Z,15.57
2023-02-23T01:01:52.946Z,15.63
2023-02-23T01:04:19.292Z,15.00
2023-02-23T01:06:45.674Z,17.48
2023-02-23T01:09:12.309Z,15.60
2023-02-23T01:11:38.716Z,16.27
2023-02-23T01:14:05.125Z,15.23
2023-02-23T01:16:31.875Z,16.40
2023-02-23T01:18:58.458Z,16.52
2023-02-23T01:21:24.742Z,16.40
2023-02-23T01:23:51.225Z,16.83
2023-02-23T01:26:18.115Z,16.25
2023-02-23T01:28:44.480Z,16.02
2023-02-23T01:31:10.934Z,14.88
2023-02-23T01:33:37.359Z,15.38
2023-02-23T01:36:03.707Z,17.02
2023-02-23T01:38:30.182Z,14.93
2023-02-23T01:40:57.136Z,15.63
2023-02-23T01:43:23.825Z,16.45
2023-02-23T01:45:50.378Z,17.77
2023-02-23T01:48:16.707Z,16.15
2023-02-23T01:50:43.080Z,16.35
2023-02-23T01:53:09.409Z,16.52
2023-02-23T01:55:35.771Z,16.50
2023-02-23T01:58:02.075Z,17.08
2023-02-23T02:00:28.570Z,16.33
2023-02-23T02:02:55.517Z,16.45
2023-02-23T02:05:21.935Z,15.98
2023-02-23T02:07:48.587Z,16.10
2023-02-23T02:10:15.061Z,16.05
2023-02-23T02:12:41.564Z,15.95
2023-02-23T02:15:09.008Z,15.90
2023-02-23T02:17:35.610Z,16.10
2023-02-23T02:20:01.939Z,16.90
2023-02-23T02:22:28.331Z,16.48
2023-02-23T02:24:54.640Z,16.63
2023-02-23T02:27:21.351Z,15.65
2023-02-23T02:29:47.725Z,16.48
2023-02-23T02:32:14.791Z,16.23
2023-02-23T02:34:41.242Z,15.68
2023-02-23T02:37:07.662Z,16.00
2023-02-23T02:39:34.066Z,16.55
2023-02-23T02:42:00.364Z,16.75
2023-02-23T02:44:27.299Z,16.35
2023-02-23T02:46:53.959Z,15.50
2023-02-23T02:49:20.350Z,15.50
2023-02-23T02:51:46.930Z,15.90
2023-02-23T02:54:13.300Z,15.05
2023-02-23T02:56:39.671Z,15.75
2023-02-23T02:59:06.044Z,15.52
2023-02-23T03:01:32.428Z,15.93
2023-02-23T03:03:58.748Z,15.60
2023-02-23T03:06:25.078Z,16.40
2023-02-23T03:08:51.582Z,15.40
2023-02-23T03:11:18.334Z,16.42
2023-02-23T03:13:45.083Z,15.30
2023-02-23T03:16:11.482Z,15.45
2023-02-23T03:18:37.953Z,15.77
2023-02-23T03:21:04.812Z,15.65
2023-02-23T03:23:31.914Z,15.45
2023-02-23T03:25:58.539Z,15.57
2023-02-23T03:28:26.161Z,16.52
2023-02-23T03:30:53.178Z,16.52
2023-02-23T03:33:19.575Z,15.40
2023-02-23T03:35:46.146Z,16.23
2023-02-23T03:38:12.622Z,15.20
2023-02-23T03:40:39.221Z,15.60
2023-02-23T03:43:05.819Z,16.00
2023-02-23T03:45:32.295Z,16.08
2023-02-23T03:47:58.879Z,15.10
2023-02-23T03:50:25.419Z,15.43
2023-02-23T03:52:51.765Z,15.13
2023-02-23T03:55:18.261Z,15.00
2023-02-23T03:57:44.746Z,16.10
2023-02-23T04:00:11.073Z,15.15
2023-02-23T04:02:37.710Z,14.90
2023-02-23T04:05:04.142Z,14.80
2023-02-23T04:07:31.152Z,15.43
2023-02-23T04:09:57.498Z,14.65
2023-02-23T04:12:23.925Z,15.75
2023-02-23T04:14:50.302Z,16.13
2023-02-23T04:17:16.671Z,15.30
2023-02-23T04:19:43.174Z,15.75
2023-02-23T04:22:09.519Z,14.15
2023-02-23T04:24:36.286Z,15.80
2023-02-23T04:27:02.655Z,15.18
2023-02-23T04:29:29.049Z,15.20
2023-02-23T04:31:55.467Z,14.63
2023-02-23T04:34:21.857Z,15.23
2023-02-23T04:36:48.917Z,16.52
2023-02-23T04:39:15.427Z,15.10
2023-02-23T04:41:41.789Z,14.60
2023-02-23T04:44:08.196Z,15.48
2023-02-23T04:46:34.556Z,14.93
2023-02-23T04:49:01.127Z,15.30
2023-02-23T04:51:27.672Z,15.18
2023-02-23T04:53:54.287Z,15.55
2023-02-23T04:56:20.807Z,16.23
2023-02-23T04:58:47.586Z,14.63
2023-02-23T05:01:14.001Z,14.45
2023-02-23T05:03:40.571Z,15.15
2023-02-23T05:06:07.232Z,14.85
2023-02-23T05:08:33.603Z,13.60
2023-02-23T05:11:00.334Z,15.73
2023-02-23T05:13:27.102Z,14.77
2023-02-23T05:15:53.513Z,14.73
2023-02-23T05:18:20.146Z,14.77
2023-02-23T05:20:47.002Z,13.95
2023-02-23T05:23:13.816Z,15.35
2023-02-23T05:25:40.668Z,15.55
2023-02-23T05:28:07.262Z,15.40
2023-02-23T05:30:33.814Z,15.18
2023-02-23T05:33:00.194Z,15.18
2023-02-23T05:35:26.975Z,14.63
2023-02-23T05:37:53.744Z,14.38
2023-02-23T05:40:20.391Z,15.68
2023-02-23T05:42:46.817Z,15.38
2023-02-23T05:45:13.467Z,15.07
2023-02-23T05:47:39.854Z,15.45
2023-02-23T05:50:06.520Z,14.63
2023-02-23T05:52:33.504Z,15.05
2023-02-23T05:55:00.176Z,14.27
2023-02-23T05:57:27.076Z,14.73
2023-02-23T05:59:53.539Z,14.15
2023-02-23T06:02:19.920Z,14.43
2023-02-23T06:04:46.788Z,15.80
2023-02-23T06:07:13.124Z,15.23
2023-02-23T06:09:39.699Z,14.52
2023-02-23T06:12:06.274Z,14.85
2023-02-23T06:14:32.566Z,15.32
2023-02-23T06:16:59.165Z,14.55
2023-02-23T06:19:25.610Z,15.80
2023-02-23T06:21:51.924Z,136.80
2023-02-23T06:24:18.275Z,210.13
2023-02-23T06:26:44.692Z,122.90
2023-02-23T06:29:10.977Z,135.15
2023-02-23T06:31:37.403Z,132.35
2023-02-23T06:34:03.826Z,122.35
2023-02-23T06:36:30.582Z,238.32
2023-02-23T06:38:57.004Z,210.80
2023-02-23T06:41:23.372Z,337.92
2023-02-23T06:43:49.865Z,297.27
2023-02-23T06:46:16.280Z,267.15
2023-02-23T06:48:42.647Z,201.90
2023-02-23T06:51:09.040Z,233.20
2023-02-23T06:53:35.409Z,224.20
2023-02-23T06:56:01.837Z,221.15
2023-02-23T06:58:28.182Z,211.20
2023-02-23T07:00:54.922Z,206.75
2023-02-23T07:03:21.236Z,197.05
2023-02-23T07:05:47.970Z,196.98
2023-02-23T07:08:14.396Z,192.43
2023-02-23T07:10:40.717Z,183.52
2023-02-23T07:13:07.392Z,183.20
2023-02-23T07:15:33.827Z,184.75
2023-02-23T07:18:00.147Z,180.32
2023-02-23T07:20:26.749Z,177.23
2023-02-23T07:22:53.664Z,177.88
2023-02-23T07:25:20.046Z,167.95
2023-02-23T07:27:46.646Z,168.77
2023-02-23T07:30:13.015Z,161.65
2023-02-23T07:32:39.467Z,158.55
2023-02-23T07:35:05.835Z,160.25
2023-02-23T07:37:32.465Z,155.90
2023-02-23T07:40:01.024Z,151.77
2023-02-23T07:42:27.865Z,152.73
2023-02-23T07:44:54.256Z,154.00
2023-02-23T07:47:20.708Z,149.95
2023-02-23T07:49:47.054Z,147.25
2023-02-23T07:52:13.782Z,145.82
2023-02-23T07:54:40.157Z,138.57
2023-02-23T07:57:06.898Z,140.00
2023-02-23T07:59:33.755Z,142.02
2023-02-23T08:02:00.163Z,137.68
2023-02-23T08:04:26.670Z,136.38
2023-02-23T08:06:53.250Z,126.07
2023-02-23T08:09:19.709Z,131.65
2023-02-23T08:11:46.449Z,130.57
2023-02-23T08:14:12.798Z,117.93
2023-02-23T08:16:39.262Z,111.38
2023-02-23T08:19:05.734Z,100.88
2023-02-23T08:21:32.510Z,95.38
2023-02-23T08:23:58.941Z,86.22
2023-02-23T08:26:25.425Z,81.47
2023-02-23T08:28:51.882Z,80.05
2023-02-23T08:31:18.674Z,77.55
2023-02-23T08:33:45.207Z,82.90
2023-02-23T08:36:11.559Z,78.03
2023-02-23T08:38:38.325Z,71.78
2023-02-23T08:41:04.843Z,72.07
2023-02-23T08:43:31.536Z,72.25
2023-02-23T08:45:58.168Z,74.57
2023-02-23T08:48:24.733Z,75.22
2023-02-23T08:50:51.032Z,70.22
2023-02-23T08:53:17.522Z,68.68
2023-02-23T08:55:43.888Z,66.68
2023-02-23T08:58:10.270Z,67.22
2023-02-23T09:00:36.830Z,64.30
2023-02-23T09:03:03.690Z,63.47
2023-02-23T09:05:30.135Z,64.32
2023-02-23T09:07:57.015Z,64.60
2023-02-23T09:10:23.575Z,61.45
2023-02-23T09:12:50.475Z,59.95
2023-02-23T09:15:16.850Z,59.50
2023-02-23T09:17:43.264Z,58.17
2023-02-23T09:20:09.562Z,58.15
2023-02-23T09:22:37.016Z,59.75
2023-02-23T09:25:03.510Z,57.30
2023-02-23T09:27:29.852Z,57.35
2023-02-23T09:29:56.271Z,55.33
2023-02-23T09:32:23.144Z,54.75
2023-02-23T09:34:49.611Z,52.80
2023-02-23T09:37:16.009Z,53.40
2023-02-23T09:39:42.757Z,51.60
2023-02-23T09:42:09.572Z,54.33
2023-02-23T09:44:35.862Z,51.35
2023-02-23T09:47:02.169Z,51.50
2023-02-23T09:49:29.020Z,50.30
2023-02-23T09:51:55.424Z,51.03
2023-02-23T09:54:21.904Z,53.38
2023-02-23T09:56:48.519Z,50.78
2023-02-23T09:59:14.909Z,50.83
2023-02-23T10:01:41.778Z,49.95
2023-02-23T10:04:08.214Z,49.75
2023-02-23T10:06:34.582Z,48.97
2023-02-23T10:09:01.406Z,46.78
2023-02-23T10:11:27.835Z,47.75
2023-02-23T10:13:54.211Z,45.20
2023-02-23T10:16:20.763Z,48.13
2023-02-23T10:18:47.510Z,48.25
2023-02-23T10:21:13.864Z,44.97
2023-02-23T10:23:40.440Z,46.28
2023-02-23T10:26:06.745Z,46.28
2023-02-23T10:28:33.394Z,44.75
2023-02-23T10:30:59.847Z,45.22
2023-02-23T10:33:26.787Z,45.28
2023-02-23T10:36:07.200Z,44.60
2023-02-23T10:38:39.115Z,44.40
2023-02-23T10:41:05.517Z,43.08
2023-02-23T10:43:32.063Z,44.50
2023-02-23T10:45:58.503Z,44.13
2023-02-23T10:48:25.554Z,42.80
2023-02-23T10:50:52.154Z,41.92
2023-02-23T10:53:18.576Z,42.33
2023-02-23T10:55:45.254Z,41.95
2023-02-23T10:58:11.669Z,40.28
2023-02-23T11:00:37.988Z,41.40
2023-02-23T11:03:04.371Z,39.63
2023-02-23T11:05:30.682Z,39.63
2023-02-23T11:07:57.745Z,40.78
2023-02-23T11:10:24.132Z,38.20
2023-02-23T11:12:50.771Z,38.58
2023-02-23T11:15:17.181Z,39.03
2023-02-23T11:17:43.743Z,37.05
2023-02-23T11:20:10.560Z,38.42
2023-02-23T11:22:36.978Z,39.30
2023-02-23T11:25:03.675Z,38.70
2023-02-23T11:27:30.171Z,38.22
2023-02-23T11:29:56.606Z,36.92
2023-02-23T11:32:23.372Z,38.78
2023-02-23T11:34:50.146Z,36.45
2023-02-23T11:37:16.870Z,38.83
2023-02-23T11:39:43.402Z,36.38
2023-02-23T11:42:09.911Z,36.70
2023-02-23T11:44:36.444Z,36.33
2023-02-23T11:47:02.826Z,36.50
2023-02-23T11:49:29.593Z,36.70
2023-02-23T11:51:56.122Z,34.55
2023-02-23T11:54:22.417Z,36.75
2023-02-23T11:56:49.189Z,37.13
2023-02-23T11:59:15.527Z,36.13
2023-02-23T12:01:42.168Z,34.25
2023-02-23T12:04:08.671Z,34.58
2023-02-23T12:06:35.128Z,33.33
2023-02-23T12:09:01.506Z,34.67
2023-02-23T12:11:27.883Z,34.65
2023-02-23T12:13:54.221Z,34.90
2023-02-23T12:16:21.036Z,32.75
2023-02-23T12:18:47.739Z,34.78
2023-02-23T12:21:14.015Z,32.63
2023-02-23T12:23:40.344Z,31.40
2023-02-23T12:26:06.786Z,32.00
2023-02-23T12:28:33.367Z,30.35
2023-02-23T12:30:59.743Z,32.17
2023-02-23T12:33:26.068Z,30.38
2023-02-23T12:35:52.640Z,31.00
2023-02-23T12:38:19.438Z,31.50
2023-02-23T12:40:45.824Z,30.70
2023-02-23T12:43:12.726Z,30.60
2023-02-23T12:45:39.479Z,31.85
2023-02-23T12:48:05.979Z,30.85
2023-02-23T12:50:32.374Z,29.58
2023-02-23T12:52:59.209Z,28.95
2023-02-23T12:55:25.554Z,27.60
2023-02-23T12:57:52.146Z,28.33
2023-02-23T13:00:19.050Z,30.50
2023-02-23T13:02:45.584Z,28.30
2023-02-23T13:05:12.008Z,28.52
2023-02-23T13:07:38.747Z,29.70
2023-02-23T13:10:05.161Z,28.63
2023-02-23T13:12:31.757Z,26.90
2023-02-23T13:14:58.260Z,28.52
2023-02-23T13:17:24.570Z,27.95
2023-02-23T13:19:51.177Z,27.10
2023-02-23T13:22:17.930Z,26.90
2023-02-23T13:24:44.401Z,25.17
2023-02-23T13:27:10.773Z,26.95
2023-02-23T13:29:37.162Z,27.15
2023-02-23T13:32:03.818Z,28.58
2023-02-23T13:34:30.436Z,26.92
2023-02-23T13:36:57.126Z,26.42
2023-02-23T13:39:23.618Z,26.63
2023-02-23T13:41:50.403Z,26.15
2023-02-23T13:44:16.943Z,27.52
2023-02-23T13:46:43.192Z,26.95
2023-02-23T13:49:09.587Z,26.35
2023-02-23T13:51:35.941Z,25.23
2023-02-23T13:54:02.415Z,25.15
2023-02-23T13:56:29.296Z,26.48
2023-02-23T13:58:55.659Z,25.95
2023-02-23T14:01:22.449Z,28.60
2023-02-23T14:03:49.627Z,27.42
2023-02-23T14:06:15.968Z,25.38
2023-02-23T14:08:42.678Z,26.52
2023-02-23T14:11:09.313Z,24.15
2023-02-23T14:13:35.692Z,25.38
2023-02-23T14:16:02.409Z,24.85
2023-02-23T14:18:28.879Z,24.50
2023-02-23T14:20:55.651Z,24.65
2023-02-23T14:23:22.032Z,24.80
2023-02-23T14:25:48.407Z,24.70
2023-02-23T14:28:14.717Z,24.25
2023-02-23T14:30:41.404Z,25.38
2023-02-23T14:33:21.109Z,25.52
2023-02-23T14:35:47.853Z,23.85
2023-02-23T14:38:14.450Z,24.88
2023-02-23T14:40:40.926Z,24.02
2023-02-23T14:43:07.254Z,23.90
2023-02-23T14:45:34.143Z,25.05
2023-02-23T14:48:00.541Z,23.75
2023-02-23T14:50:27.001Z,23.48
2023-02-23T14:52:53.341Z,23.45
2023-02-23T14:55:20.096Z,24.13
2023-02-23T14:57:46.505Z,24.08
2023-02-23T15:00:12.859Z,22.90
2023-02-23T15:02:53.677Z,24.20
2023-02-23T15:05:20.449Z,24.20
2023-02-23T15:07:47.420Z,22.38
2023-02-23T15:10:13.881Z,22.70
2023-02-23T15:12:40.710Z,22.67
2023-02-23T15:15:07.317Z,23.13
2023-02-23T15:17:33.607Z,21.63
2023-02-23T15:22:47.096Z,23.25
2023-02-23T15:25:13.402Z,22.58
2023-02-23T15:27:39.804Z,22.40
2023-02-23T15:30:06.146Z,22.55
2023-02-23T15:32:32.819Z,22.70
2023-02-23T15:34:59.345Z,22.30
2023-02-23T15:37:26.608Z,22.60
2023-02-23T15:39:52.956Z,20.98
2023-02-23T15:42:19.674Z,22.30
2023-02-23T15:44:46.173Z,22.63
2023-02-23T15:47:13.068Z,22.30
2023-02-23T15:49:39.771Z,23.10
2023-02-23T15:52:06.251Z,20.40
2023-02-23T15:54:33.144Z,23.20
2023-02-23T15:56:59.889Z,21.10
2023-02-23T15:59:26.322Z,22.52
2023-02-23T16:01:52.751Z,21.85
2023-02-23T16:04:19.114Z,22.27
2023-02-23T16:06:45.724Z,21.17
2023-02-23T16:09:12.089Z,22.17
2023-02-23T16:11:39.157Z,20.92
2023-02-23T16:14:05.787Z,21.20
2023-02-23T16:16:32.336Z,21.35
2023-02-23T16:18:58.830Z,21.35
2023-02-23T16:21:25.397Z,21.42
2023-02-23T16:23:51.882Z,21.35
2023-02-23T16:26:18.819Z,21.42
2023-02-23T16:28:45.461Z,20.98
2023-02-23T16:31:12.059Z,21.30
2023-02-23T16:33:38.487Z,20.52
2023-02-23T16:36:04.888Z,20.52
2023-02-23T16:38:31.198Z,21.40
2023-02-23T16:40:57.732Z,20.58
2023-02-23T16:43:24.162Z,20.98
2023-02-23T16:45:51.107Z,20.40
2023-02-23T16:48:17.582Z,20.23
2023-02-23T16:50:43.952Z,19.50
2023-02-23T16:53:10.323Z,20.00
2023-02-23T16:55:36.682Z,20.23
2023-02-23T16:58:03.480Z,20.92
2023-02-23T17:00:29.855Z,20.60
2023-02-23T17:02:56.710Z,19.85
2023-02-23T17:05:23.479Z,21.33
2023-02-23T17:07:49.892Z,21.30
2023-02-23T17:10:16.653Z,20.83
2023-02-23T17:12:43.062Z,19.00
2023-02-23T17:15:09.402Z,19.70
2023-02-23T17:17:35.696Z,21.00
2023-02-23T17:20:02.028Z,19.90
2023-02-23T17:22:28.717Z,20.67
2023-02-23T17:24:55.169Z,19.05
2023-02-23T17:27:21.510Z,20.25
2023-02-23T17:29:47.931Z,19.83
2023-02-23T17:32:14.587Z,18.77
2023-02-23T17:34:41.096Z,20.05
2023-02-23T17:37:08.036Z,19.67
2023-02-23T17:39:34.557Z,20.90
2023-02-23T17:42:00.925Z,19.88
2023-02-23T17:44:27.304Z,19.52
2023-02-23T17:46:53.779Z,20.88
2023-02-23T17:49:20.126Z,19.13
2023-02-23T17:51:46.750Z,19.58
2023-02-23T17:54:13.077Z,20.40
2023-02-23T17:56:39.423Z,19.80
2023-02-23T17:59:05.829Z,19.30
2023-02-23T18:01:32.267Z,20.30
2023-02-23T18:03:58.741Z,20.73
2023-02-23T18:06:25.119Z,20.10
2023-02-23T18:08:51.523Z,20.40
2023-02-23T18:11:17.936Z,18.80
2023-02-23T18:13:46.199Z,19.67
2023-02-23T18:18:41.501Z,18.52
2023-02-23T18:21:08.088Z,18.40
2023-02-23T18:23:34.408Z,20.80
2023-02-23T18:26:00.754Z,20.42
2023-02-23T18:28:27.030Z,19.73
2023-02-23T18:30:54.004Z,19.65
2023-02-23T18:33:20.665Z,20.90
2023-02-23T18:35:47.051Z,20.67
2023-02-23T18:38:13.563Z,19.45
2023-02-23T18:40:40.109Z,21.27
2023-02-23T18:43:06.800Z,19.27
2023-02-23T18:45:33.899Z,20.17
2023-02-23T18:48:00.541Z,19.92
2023-02-23T18:50:27.194Z,20.52
2023-02-23T18:52:53.863Z,21.73
2023-02-23T18:55:20.460Z,21.75
2023-02-23T18:57:46.803Z,21.67
2023-02-23T19:00:13.795Z,20.67
2023-02-23T19:02:40.504Z,22.63
2023-02-23T19:05:07.391Z,21.10
2023-02-23T19:07:33.906Z,33.80
2023-02-23T19:10:00.238Z,41.78
2023-02-23T19:12:26.723Z,76.85
2023-02-23T19:14:53.100Z,101.47
2023-02-23T19:17:19.399Z,109.72
2023-02-23T19:19:45.757Z,110.53
2023-02-23T19:22:12.276Z,103.40
2023-02-23T19:24:39.158Z,94.38
2023-02-23T19:27:05.770Z,88.97
2023-02-23T19:29:32.262Z,84.82
2023-02-23T19:31:59.216Z,78.15
2023-02-23T19:34:26.023Z,78.25
2023-02-23T19:36:52.362Z,76.85
2023-02-23T19:39:18.776Z,221.77
2023-02-23T19:41:45.769Z,188.52
2023-02-23T19:44:12.290Z,177.98
2023-02-23T19:46:39.130Z,163.02
2023-02-23T19:49:05.831Z,152.68
2023-02-23T19:51:32.291Z,147.10
2023-02-23T19:53:58.681Z,138.40
2023-02-23T19:56:25.020Z,129.75
2023-02-23T19:58:51.501Z,125.85
2023-02-23T20:01:18.299Z,160.43
2023-02-23T20:03:45.677Z,212.15
2023-02-23T20:06:12.035Z,216.80
2023-02-23T20:08:38.554Z,198.38
2023-02-23T20:11:04.998Z,181.93
2023-02-23T20:13:31.381Z,175.73
2023-02-23T20:15:57.672Z,159.50
2023-02-23T20:18:23.971Z,151.25
2023-02-23T20:20:50.321Z,149.23
2023-02-23T20:23:17.249Z,144.25
2023-02-23T20:25:44.263Z,132.30
2023-02-23T20:28:11.035Z,128.82
2023-02-23T20:30:37.531Z,129.00
2023-02-23T20:33:03.997Z,121.50
2023-02-23T20:35:30.399Z,115.80
2023-02-23T20:37:56.977Z,109.95
2023-02-23T20:40:23.279Z,108.05
2023-02-23T20:42:49.856Z,110.28
2023-02-23T20:45:16.738Z,223.30
2023-02-23T20:47:43.370Z,234.68
2023-02-23T20:50:09.916Z,210.48
2023-02-23T20:52:36.265Z,199.38
2023-02-23T20:55:03.051Z,191.13
2023-02-23T20:57:29.400Z,180.45
2023-02-23T20:59:55.748Z,169.90
2023-02-23T21:02:22.089Z,163.07
2023-02-23T21:04:48.574Z,222.90
2023-02-23T21:07:14.967Z,245.63
2023-02-23T21:09:41.309Z,302.13
2023-02-23T21:12:07.770Z,279.33
2023-02-23T21:14:35.489Z,282.45
2023-02-23T21:17:02.063Z,275.42
2023-02-23T21:19:28.596Z,266.85
2023-02-23T21:21:55.352Z,266.83
2023-02-23T21:24:21.721Z,266.52
2023-02-23T21:26:48.401Z,512.05
2023-02-23T21:29:14.825Z,538.08
2023-02-23T21:31:41.859Z,468.50
2023-02-23T21:34:08.560Z,442.20
2023-02-23T21:36:35.812Z,416.23
2023-02-23T21:39:02.221Z,402.48
2023-02-23T21:41:29.057Z,394.45
2023-02-23T21:43:55.607Z,383.00
2023-02-23T21:46:22.033Z,366.95
2023-02-23T21:48:48.443Z,445.33
2023-02-23T21:51:14.867Z,571.03
2023-02-23T21:53:41.260Z,543.17
2023-02-23T21:56:07.888Z,530.08
2023-02-23T21:58:34.838Z,494.73
2023-02-23T22:01:01.282Z,481.00
2023-02-23T22:03:27.643Z,463.38
2023-02-23T22:05:54.001Z,446.25
2023-02-23T22:08:20.813Z,522.25
2023-02-23T22:10:47.121Z,608.70
2023-02-23T22:13:14.524Z,571.53
2023-02-23T22:15:41.065Z,522.65
2023-02-23T22:18:07.936Z,505.05
2023-02-23T22:20:34.384Z,482.02
2023-02-23T22:23:00.851Z,463.95
2023-02-23T22:25:27.141Z,455.73
2023-02-23T22:27:53.443Z,449.63
2023-02-23T22:30:19.883Z,437.90
2023-02-23T22:32:46.578Z,426.67
2023-02-23T22:35:13.041Z,419.60
2023-02-23T22:37:39.810Z,411.33
2023-02-23T22:40:06.501Z,412.35
2023-02-23T22:42:32.795Z,400.63
2023-02-23T22:44:59.603Z,392.02
2023-02-23T22:47:26.039Z,387.58
2023-02-23T22:49:52.446Z,378.55
2023-02-23T22:52:18.871Z,375.00
2023-02-23T22:54:45.387Z,367.83
2023-02-23T22:57:11.701Z,357.15
2023-02-23T22:59:38.317Z,351.55
2023-02-23T23:02:04.673Z,352.55
2023-02-23T23:04:31.277Z,338.77
2023-02-23T23:06:57.918Z,334.90
2023-02-23T23:09:24.615Z,330.98
2023-02-23T23:11:51.379Z,328.13
2023-02-23T23:14:17.795Z,328.42
2023-02-23T23:16:44.346Z,319.90
2023-02-23T23:19:11.764Z,309.13
2023-02-23T23:21:39.030Z,311.67
2023-02-23T23:24:05.327Z,303.80
2023-02-23T23:26:31.782Z,300.95
2023-02-23T23:28:58.123Z,294.20
2023-02-23T23:31:25.063Z,290.48
2023-02-23T23:33:51.532Z,285.83
2023-02-23T23:36:18.042Z,291.67
2023-02-23T23:38:44.317Z,279.33
2023-02-23T23:41:10.613Z,279.90
2023-02-23T23:43:37.046Z,268.52
2023-02-23T23:46:03.385Z,272.25
2023-02-23T23:48:29.715Z,270.63
2023-02-23T23:50:56.190Z,263.88
2023-02-23T23:53:22.702Z,264.15
2023-02-23T23:55:49.053Z,255.63
2023-02-23T23:58:15.399Z,256.38
